aviador You're here:

VEGY Decoded Metar

GAYA in INDIA
Report Time2018-01-21 08:30:00
UTC Time2018-01-21 08:38:20
Flight Rules ifr IFR
Wind300° at 08 kt
W.Decomp.*RWY 28: 7.5 kt HW 2.7 kt RCW
W.Rank300° ranks 8
Current wind is above 300° avg. (7.6)
Visibility4000 m
Phenomena:Haze
Clouds:N/A
Expected CloudBase > 6,400 ft AGL from Temp-Dew spread
CeilingNone
Temp24°C (ISA +10)
Dew Point08°C (36% RH)
AAT20.7°C
QNH1014 hPa
Density Alt1,627 ft
Elevation381 ft
Report Wrong Elevation
Raw Report
METAR VEGY 210830Z 30008KT 4000 HZ NSC 24/08 Q1014 NOSIG=####018000079####
SAIN90 VAAU 210700 RRA

Extra information for VEGY:More info

Airport Information Weather charts Add Link Nearby Venues Social comments